createdAt,value
2024-01-11T00:01:13.034Z,66.28
2024-01-11T00:03:41.028Z,66.49
2024-01-11T00:06:09.023Z,66.80
2024-01-11T00:08:37.115Z,66.74
2024-01-11T00:11:05.457Z,66.67
2024-01-11T00:13:33.745Z,66.42
2024-01-11T00:16:01.632Z,66.57
2024-01-11T00:18:29.776Z,66.40
2024-01-11T00:20:57.912Z,66.15
2024-01-11T00:23:25.750Z,66.03
2024-01-11T00:25:53.689Z,65.86
2024-01-11T00:28:21.641Z,65.89
2024-01-11T00:30:49.679Z,66.22
2024-01-11T00:33:17.698Z,66.38
2024-01-11T00:35:45.920Z,66.64
2024-01-11T00:38:13.885Z,66.71
2024-01-11T00:40:42.018Z,66.93
2024-01-11T00:43:10.006Z,66.91
2024-01-11T00:45:37.934Z,66.97
2024-01-11T00:48:06.206Z,66.91
2024-01-11T00:50:34.291Z,66.86
2024-01-11T00:53:02.738Z,66.88
2024-01-11T00:55:30.957Z,66.84
2024-01-11T00:57:59.044Z,66.60
2024-01-11T01:00:27.060Z,66.15
2024-01-11T01:02:55.207Z,66.26
2024-01-11T01:05:23.169Z,66.36
2024-01-11T01:07:51.226Z,66.57
2024-01-11T01:13:44.984Z,66.73
2024-01-11T01:16:13.034Z,66.30
2024-01-11T01:18:41.435Z,66.20
2024-01-11T01:21:09.745Z,65.84
2024-01-11T01:23:37.757Z,65.91
2024-01-11T01:26:07.564Z,66.27
2024-01-11T01:28:35.869Z,66.36
2024-01-11T01:31:03.929Z,66.60
2024-01-11T01:33:31.975Z,66.80
2024-01-11T01:35:59.918Z,67.10
2024-01-11T01:38:27.849Z,67.05
2024-01-11T01:40:56.023Z,67.19
2024-01-11T01:43:24.162Z,67.37
2024-01-11T01:45:52.989Z,67.44
2024-01-11T01:48:21.748Z,68.05
2024-01-11T01:50:53.229Z,68.16
2024-01-11T01:53:23.522Z,67.81
2024-01-11T01:55:53.783Z,67.42
2024-01-11T01:58:22.718Z,67.39
2024-01-11T02:00:54.133Z,67.74
2024-01-11T02:03:22.394Z,68.21
2024-01-11T02:05:50.490Z,68.74
2024-01-11T02:08:21.837Z,68.90
2024-01-11T02:10:51.011Z,68.79
2024-01-11T02:13:20.381Z,68.63
2024-01-11T02:15:48.383Z,68.23
2024-01-11T02:18:16.459Z,68.10
2024-01-11T02:20:45.183Z,67.92
2024-01-11T02:23:18.446Z,67.87
2024-01-11T02:25:46.636Z,67.47
2024-01-11T02:28:15.899Z,67.14
2024-01-11T02:30:44.239Z,66.58
2024-01-11T02:33:17.173Z,66.39
2024-01-11T02:35:47.920Z,66.36
2024-01-11T02:38:17.016Z,66.15
2024-01-11T02:40:45.747Z,65.94
2024-01-11T02:43:14.015Z,66.09
2024-01-11T02:45:41.954Z,66.33
2024-01-11T02:48:10.010Z,66.64
2024-01-11T02:50:38.186Z,66.64
2024-01-11T02:53:06.219Z,66.84
2024-01-11T02:55:34.189Z,66.72
2024-01-11T02:58:02.038Z,67.15
2024-01-11T03:00:29.948Z,67.53
2024-01-11T03:02:57.866Z,67.89
2024-01-11T03:05:25.969Z,68.22
2024-01-11T03:07:53.962Z,68.27
2024-01-11T03:10:22.126Z,68.20
2024-01-11T03:12:50.614Z,68.25
2024-01-11T03:15:18.569Z,68.26
2024-01-11T03:17:46.833Z,68.66
2024-01-11T03:20:15.078Z,68.47
2024-01-11T03:22:49.049Z,68.37
2024-01-11T03:25:17.168Z,68.15
2024-01-11T03:27:45.486Z,67.73
2024-01-11T03:30:13.760Z,67.83
2024-01-11T03:32:42.046Z,67.89
2024-01-11T03:35:10.334Z,67.47
2024-01-11T03:37:38.477Z,67.55
2024-01-11T03:40:07.067Z,67.69
2024-01-11T03:42:35.111Z,67.81
2024-01-11T03:45:03.120Z,68.06
2024-01-11T03:47:31.406Z,68.11
2024-01-11T03:49:59.520Z,68.27
2024-01-11T03:52:27.627Z,68.96
2024-01-11T03:54:55.592Z,68.85
2024-01-11T03:57:23.556Z,68.85
2024-01-11T03:59:51.776Z,68.88
2024-01-11T04:02:19.833Z,68.98
2024-01-11T04:04:47.870Z,68.85
2024-01-11T04:07:16.177Z,68.69
2024-01-11T04:09:44.215Z,68.53
2024-01-11T04:12:12.360Z,68.52
2024-01-11T04:14:43.348Z,68.14
2024-01-11T04:17:11.347Z,68.09
2024-01-11T04:19:40.736Z,67.97
2024-01-11T04:22:09.045Z,68.14
2024-01-11T04:24:36.984Z,68.03
2024-01-11T04:27:05.090Z,68.27
2024-01-11T04:29:33.323Z,68.41
2024-01-11T04:32:03.015Z,68.32
2024-01-11T04:34:32.471Z,67.96
2024-01-11T04:37:00.888Z,67.51
2024-01-11T04:39:28.830Z,66.84
2024-01-11T04:41:56.752Z,67.17
2024-01-11T04:44:26.641Z,67.37
2024-01-11T04:46:55.923Z,67.35
2024-01-11T04:49:24.130Z,67.31
2024-01-11T04:51:52.236Z,67.27
2024-01-11T04:54:20.162Z,67.25
2024-01-11T04:56:48.337Z,67.16
2024-01-11T04:59:16.336Z,67.41
2024-01-11T05:01:44.260Z,67.62
2024-01-11T05:04:12.265Z,67.89
2024-01-11T05:06:40.374Z,67.77
2024-01-11T05:09:08.344Z,67.96
2024-01-11T05:11:36.369Z,67.95
2024-01-11T05:14:04.390Z,67.83
2024-01-11T05:16:32.595Z,67.93
2024-01-11T05:19:00.702Z,68.08
2024-01-11T05:21:29.056Z,68.08
2024-01-11T05:23:57.050Z,68.52
2024-01-11T05:26:25.169Z,68.63
2024-01-11T05:28:53.144Z,68.54
2024-01-11T05:31:21.219Z,68.57
2024-01-11T05:33:49.671Z,68.49
2024-01-11T05:36:17.888Z,68.31
2024-01-11T05:38:46.760Z,68.10
2024-01-11T05:41:15.413Z,68.25
2024-01-11T05:43:44.478Z,68.32
2024-01-11T05:46:12.549Z,68.36
2024-01-11T05:48:40.653Z,68.25
2024-01-11T05:51:10.445Z,68.20
2024-01-11T05:53:38.530Z,68.19
2024-01-11T05:56:11.168Z,68.32
2024-01-11T05:58:41.009Z,68.73
2024-01-11T06:01:09.330Z,69.22
2024-01-11T06:03:38.720Z,69.33
2024-01-11T06:06:07.151Z,68.77
2024-01-11T06:08:35.234Z,68.93
2024-01-11T06:11:03.276Z,69.29
2024-01-11T06:13:31.236Z,69.13
2024-01-11T06:15:59.577Z,69.21
2024-01-11T06:18:27.782Z,69.38
2024-01-11T06:20:55.832Z,69.73
2024-01-11T06:23:25.874Z,69.78
2024-01-11T06:25:53.833Z,69.70
2024-01-11T06:28:21.785Z,69.61
2024-01-11T06:30:50.009Z,69.35
2024-01-11T06:33:18.369Z,68.84
2024-01-11T06:35:46.738Z,68.61
2024-01-11T06:38:14.840Z,68.33
2024-01-11T06:40:42.907Z,68.01
2024-01-11T06:43:11.034Z,67.99
2024-01-11T06:45:38.936Z,68.14
2024-01-11T06:48:07.760Z,68.05
2024-01-11T06:50:35.901Z,67.63
2024-01-11T06:53:04.160Z,67.38
2024-01-11T06:55:32.238Z,67.48
2024-01-11T06:58:00.495Z,67.30
2024-01-11T07:00:29.270Z,67.15
2024-01-11T07:02:57.480Z,67.29
2024-01-11T07:05:26.290Z,67.34
2024-01-11T07:07:54.838Z,67.34
2024-01-11T07:10:22.802Z,67.19
2024-01-11T07:12:50.676Z,67.11
2024-01-11T07:15:18.769Z,66.87
2024-01-11T07:17:46.884Z,66.85
2024-01-11T07:20:16.758Z,66.46
2024-01-11T07:22:44.857Z,66.16
2024-01-11T07:25:12.903Z,65.52
2024-01-11T07:27:40.931Z,65.39
2024-01-11T07:30:09.947Z,65.31
2024-01-11T07:32:38.106Z,65.08
2024-01-11T07:35:12.205Z,65.60
2024-01-11T07:37:42.275Z,65.42
2024-01-11T07:40:12.262Z,64.57
2024-01-11T07:42:41.671Z,64.62
2024-01-11T07:45:13.754Z,64.47
2024-01-11T07:47:41.864Z,64.82
2024-01-11T07:50:16.595Z,64.73
2024-01-11T07:52:45.096Z,64.89
2024-01-11T07:55:14.260Z,64.61
2024-01-11T07:57:42.585Z,64.79
2024-01-11T08:00:11.099Z,64.43
2024-01-11T08:02:39.264Z,64.58
2024-01-11T08:05:08.272Z,64.27
2024-01-11T08:07:37.064Z,64.28
2024-01-11T08:10:05.655Z,64.32
2024-01-11T08:12:33.582Z,64.54
2024-01-11T08:15:01.721Z,64.58
2024-01-11T08:17:29.872Z,64.32
2024-01-11T08:19:58.244Z,64.13
2024-01-11T08:22:27.768Z,63.80
2024-01-11T08:24:57.259Z,63.36
2024-01-11T08:27:25.196Z,63.24
2024-01-11T08:29:53.135Z,63.14
2024-01-11T08:32:28.755Z,63.09
2024-01-11T08:35:00.623Z,63.12
2024-01-11T08:37:28.833Z,63.03
2024-01-11T08:39:56.746Z,62.57
2024-01-11T08:42:24.701Z,62.47
2024-01-11T08:44:53.449Z,62.54
2024-01-11T08:47:21.496Z,62.49
2024-01-11T08:49:50.082Z,62.27
2024-01-11T08:52:18.076Z,61.97
2024-01-11T08:54:46.021Z,61.82
2024-01-11T08:57:14.321Z,62.05
2024-01-11T08:59:42.765Z,61.86
2024-01-11T09:02:15.828Z,61.29
2024-01-11T09:04:48.837Z,60.74
2024-01-11T09:07:17.052Z,60.82
2024-01-11T09:09:51.356Z,60.95
2024-01-11T09:12:24.789Z,61.35
2024-01-11T09:14:53.179Z,60.94
2024-01-11T09:17:21.217Z,60.38
2024-01-11T09:19:49.349Z,60.43
2024-01-11T09:22:17.813Z,60.28
2024-01-11T09:24:45.704Z,59.99
2024-01-11T09:27:13.723Z,59.60
2024-01-11T09:29:45.942Z,60.00
2024-01-11T09:32:14.829Z,58.83
2024-01-11T09:34:43.472Z,58.90
2024-01-11T09:37:11.467Z,59.01
2024-01-11T09:39:39.513Z,59.00
2024-01-11T09:42:11.235Z,58.57
2024-01-11T09:44:40.824Z,58.34
2024-01-11T09:47:13.936Z,58.24
2024-01-11T09:49:45.958Z,58.19
2024-01-11T09:52:16.779Z,58.51
2024-01-11T09:54:44.857Z,58.61
2024-01-11T09:57:12.797Z,58.93
2024-01-11T09:59:42.630Z,58.74
2024-01-11T10:02:12.633Z,58.61
2024-01-11T10:04:43.438Z,57.67
2024-01-11T10:07:12.010Z,57.98
2024-01-11T10:09:40.003Z,57.89
2024-01-11T10:12:09.264Z,56.80
2024-01-11T10:14:37.234Z,57.02
2024-01-11T10:17:06.379Z,56.44
2024-01-11T10:19:34.807Z,55.81
2024-01-11T10:22:04.155Z,55.55
2024-01-11T10:24:32.372Z,55.24
2024-01-11T10:27:05.085Z,54.59
2024-01-11T10:29:34.363Z,54.06
2024-01-11T10:32:02.521Z,54.13
2024-01-11T10:34:30.943Z,53.18
2024-01-11T10:36:59.024Z,53.05
2024-01-11T10:39:28.612Z,53.53
2024-01-11T10:42:07.632Z,53.52
2024-01-11T10:44:37.507Z,53.33
2024-01-11T10:47:08.914Z,53.35
2024-01-11T10:49:41.833Z,52.63
2024-01-11T10:52:13.747Z,52.25
2024-01-11T10:54:43.481Z,51.77
2024-01-11T10:57:14.016Z,51.39
2024-01-11T10:59:44.500Z,51.35
2024-01-11T11:02:15.683Z,51.20
2024-01-11T11:04:44.983Z,51.41
2024-01-11T11:07:13.723Z,50.93
2024-01-11T11:09:46.040Z,50.91
2024-01-11T11:12:15.407Z,51.55
2024-01-11T11:14:45.539Z,51.84
2024-01-11T11:17:16.610Z,51.83
2024-01-11T11:19:44.827Z,51.72
2024-01-11T11:22:16.555Z,51.80
2024-01-11T11:24:44.946Z,51.60
2024-01-11T11:27:18.487Z,51.65
2024-01-11T11:29:49.387Z,51.31
2024-01-11T11:32:18.635Z,51.08
2024-01-11T11:34:48.010Z,51.18
2024-01-11T11:37:24.739Z,51.79
2024-01-11T11:39:52.810Z,51.69
2024-01-11T11:42:23.974Z,51.97
2024-01-11T11:44:52.505Z,51.37
2024-01-11T11:47:25.079Z,51.48
2024-01-11T11:50:11.186Z,51.51
2024-01-11T11:52:41.258Z,51.46
2024-01-11T11:55:10.049Z,51.38
2024-01-11T11:57:38.130Z,51.99
2024-01-11T12:00:06.923Z,51.41
2024-01-11T12:02:37.568Z,51.25
2024-01-11T12:05:06.328Z,51.69
2024-01-11T12:07:34.645Z,51.98
2024-01-11T12:10:02.597Z,52.34
2024-01-11T12:12:31.083Z,52.34
2024-01-11T12:15:00.446Z,52.26
2024-01-11T12:17:28.610Z,52.11
2024-01-11T12:19:57.432Z,51.90
2024-01-11T12:22:25.577Z,51.52
2024-01-11T12:24:53.548Z,51.68
2024-01-11T12:27:22.065Z,51.50
2024-01-11T12:29:56.109Z,51.91
2024-01-11T12:32:28.146Z,51.69
2024-01-11T12:34:57.485Z,52.09
2024-01-11T12:37:25.553Z,51.93
2024-01-11T12:39:59.155Z,52.31
2024-01-11T12:42:30.455Z,52.74
2024-01-11T12:44:59.734Z,53.19
2024-01-11T12:47:28.667Z,53.18
2024-01-11T12:49:56.721Z,53.53
2024-01-11T12:52:28.880Z,53.52
2024-01-11T12:54:58.011Z,53.70
2024-01-11T12:57:26.337Z,53.93
2024-01-11T12:59:54.754Z,53.92
2024-01-11T13:02:22.758Z,54.49
2024-01-11T13:04:51.999Z,54.78
2024-01-11T13:07:20.366Z,55.33
2024-01-11T13:09:48.423Z,55.75
2024-01-11T13:12:16.462Z,55.94
2024-01-11T13:14:44.602Z,56.62
2024-01-11T13:17:12.700Z,56.50
2024-01-11T13:19:41.044Z,56.63
2024-01-11T13:22:09.071Z,56.88
2024-01-11T13:24:37.095Z,56.67
2024-01-11T13:27:05.724Z,56.75
2024-01-11T13:29:33.666Z,56.83
2024-01-11T13:32:04.589Z,57.07
2024-01-11T13:34:33.886Z,57.57
2024-01-11T13:37:02.257Z,57.82
2024-01-11T13:39:30.206Z,58.36
2024-01-11T13:41:58.077Z,58.64
2024-01-11T13:44:26.142Z,58.71
2024-01-11T13:46:54.308Z,59.05
2024-01-11T13:49:24.100Z,59.20
2024-01-11T13:52:00.306Z,59.26
2024-01-11T13:54:29.567Z,59.15
2024-01-11T13:56:57.740Z,59.97
2024-01-11T13:59:25.787Z,61.38
2024-01-11T14:01:53.749Z,62.91
2024-01-11T14:04:24.681Z,62.72
2024-01-11T14:06:53.887Z,63.26
2024-01-11T14:09:23.043Z,63.54
2024-01-11T14:11:51.324Z,63.74
2024-01-11T14:14:21.819Z,64.25
2024-01-11T14:16:50.240Z,64.65
2024-01-11T14:19:18.661Z,64.65
2024-01-11T14:21:46.770Z,65.15
2024-01-11T14:24:14.853Z,65.87
2024-01-11T14:26:44.741Z,66.07
2024-01-11T14:29:12.781Z,66.21
2024-01-11T14:31:40.675Z,65.98
2024-01-11T14:34:08.975Z,65.84
2024-01-11T14:36:39.042Z,65.87
2024-01-11T14:39:07.213Z,65.46
2024-01-11T14:41:35.204Z,65.71
2024-01-11T14:44:03.201Z,66.17
2024-01-11T14:46:31.668Z,66.29
2024-01-11T14:49:02.036Z,66.47
2024-01-11T14:51:32.278Z,66.74
2024-01-11T14:54:00.268Z,66.93
2024-01-11T14:56:28.391Z,66.61
2024-01-11T14:58:56.453Z,67.17
2024-01-11T15:01:24.593Z,68.36
2024-01-11T15:03:52.474Z,69.09
2024-01-11T15:06:21.074Z,70.67
2024-01-11T15:08:49.209Z,70.74
2024-01-11T15:11:17.189Z,70.61
2024-01-11T15:13:45.611Z,70.67
2024-01-11T15:16:13.882Z,71.38
2024-01-11T15:18:41.797Z,71.73
2024-01-11T15:21:09.768Z,71.87
2024-01-11T15:23:37.643Z,73.57
2024-01-11T15:26:05.959Z,72.97
2024-01-11T15:28:33.958Z,73.22
2024-01-11T15:31:01.981Z,73.64
2024-01-11T15:33:30.048Z,73.22
2024-01-11T15:35:58.497Z,73.43
2024-01-11T15:38:26.385Z,73.90
2024-01-11T15:40:54.702Z,73.94
2024-01-11T15:43:22.629Z,74.72
2024-01-11T15:45:51.353Z,74.30
2024-01-11T15:48:19.409Z,73.87
2024-01-11T15:50:47.527Z,73.90
2024-01-11T15:53:15.669Z,75.16
2024-01-11T15:55:43.617Z,75.26
2024-01-11T15:58:11.516Z,75.49
2024-01-11T16:00:39.444Z,75.72
2024-01-11T16:03:08.046Z,75.77
2024-01-11T16:05:38.800Z,75.87
2024-01-11T16:08:08.605Z,76.59
2024-01-11T16:10:36.539Z,76.33
2024-01-11T16:13:04.689Z,76.82
2024-01-11T16:15:32.592Z,76.62
2024-01-11T16:18:00.753Z,77.61
2024-01-11T16:20:28.937Z,78.15
2024-01-11T16:22:56.883Z,77.94
2024-01-11T16:25:25.147Z,78.50
2024-01-11T16:27:52.986Z,78.54
2024-01-11T16:30:21.100Z,78.49
2024-01-11T16:32:49.031Z,78.30
2024-01-11T16:35:17.042Z,78.01
2024-01-11T16:37:44.961Z,78.44
2024-01-11T16:40:14.170Z,78.43
2024-01-11T16:42:42.430Z,78.00
2024-01-11T16:45:11.791Z,78.54
2024-01-11T16:47:40.088Z,79.09
2024-01-11T16:50:09.404Z,78.71
2024-01-11T16:52:38.642Z,78.62
2024-01-11T16:55:06.842Z,78.67
2024-01-11T16:57:34.834Z,78.67
2024-01-11T17:00:02.714Z,78.85
2024-01-11T17:02:31.132Z,78.38
2024-01-11T17:04:59.260Z,78.12
2024-01-11T17:07:27.285Z,78.30
2024-01-11T17:09:55.280Z,78.38
2024-01-11T17:12:23.348Z,78.93
2024-01-11T17:14:52.546Z,79.12
2024-01-11T17:17:23.605Z,78.98
2024-01-11T17:19:51.789Z,79.05
2024-01-11T17:22:19.689Z,78.94
2024-01-11T17:24:47.599Z,79.04
2024-01-11T17:27:15.966Z,79.47
2024-01-11T17:29:44.074Z,79.36
2024-01-11T17:32:12.491Z,79.34
2024-01-11T17:34:40.455Z,79.56
2024-01-11T17:37:08.727Z,79.22
2024-01-11T17:39:36.682Z,79.26
2024-01-11T17:42:04.798Z,79.16
2024-01-11T17:44:32.879Z,79.07
2024-01-11T17:47:00.834Z,78.98
2024-01-11T17:49:28.912Z,79.09
2024-01-11T17:51:57.562Z,79.22
2024-01-11T17:54:25.568Z,79.19
2024-01-11T17:56:54.402Z,78.82
2024-01-11T17:59:22.893Z,78.62
2024-01-11T18:01:50.924Z,78.59
2024-01-11T18:04:20.014Z,78.46
2024-01-11T18:06:49.037Z,78.76
2024-01-11T18:09:17.847Z,78.89
2024-01-11T18:11:46.470Z,78.98
2024-01-11T18:14:14.833Z,78.74
2024-01-11T18:16:43.249Z,78.35
2024-01-11T18:19:14.987Z,77.99
2024-01-11T18:21:43.328Z,77.78
2024-01-11T18:24:11.340Z,77.65
2024-01-11T18:26:39.348Z,77.55
2024-01-11T18:29:07.945Z,77.56
2024-01-11T18:31:36.075Z,77.66
2024-01-11T18:34:04.363Z,77.85
2024-01-11T18:36:32.436Z,77.82
2024-01-11T18:39:00.475Z,77.61
2024-01-11T18:41:28.644Z,77.42
2024-01-11T18:43:56.554Z,77.84
2024-01-11T18:46:24.670Z,77.62
2024-01-11T18:48:52.709Z,77.87
2024-01-11T18:51:20.782Z,77.86
2024-01-11T18:53:49.348Z,77.79
2024-01-11T18:56:17.897Z,77.75
2024-01-11T18:58:46.063Z,77.78
2024-01-11T19:01:14.101Z,77.34
2024-01-11T19:03:42.234Z,77.14
2024-01-11T19:06:10.367Z,77.15
2024-01-11T19:08:38.513Z,77.38
2024-01-11T19:11:07.626Z,77.74
2024-01-11T19:13:35.861Z,77.69
2024-01-11T19:16:04.432Z,77.67
2024-01-11T19:18:32.783Z,77.44
2024-01-11T19:21:03.024Z,77.44
2024-01-11T19:23:31.653Z,77.47
2024-01-11T19:25:59.553Z,77.24
2024-01-11T19:28:27.831Z,77.27
2024-01-11T19:30:57.294Z,77.26
2024-01-11T19:33:29.571Z,77.55
2024-01-11T19:35:58.691Z,77.53
2024-01-11T19:38:26.904Z,77.53
2024-01-11T19:40:54.789Z,77.40
2024-01-11T19:43:22.926Z,77.08
2024-01-11T19:45:51.038Z,77.08
2024-01-11T19:48:19.278Z,77.14
2024-01-11T19:50:48.794Z,76.88
2024-01-11T19:53:17.245Z,77.14
2024-01-11T19:55:45.372Z,77.60
2024-01-11T19:58:13.278Z,77.78
2024-01-11T20:00:42.620Z,77.70
2024-01-11T20:03:11.216Z,77.82
2024-01-11T20:05:39.280Z,77.80
2024-01-11T20:08:07.330Z,77.55
2024-01-11T20:10:35.637Z,77.68
2024-01-11T20:13:03.825Z,77.67
2024-01-11T20:15:32.363Z,78.01
2024-01-11T20:18:00.828Z,78.35
2024-01-11T20:20:29.469Z,78.33
2024-01-11T20:22:57.476Z,78.51
2024-01-11T20:25:25.383Z,78.45
2024-01-11T20:27:53.453Z,78.32
2024-01-11T20:30:21.463Z,78.23
2024-01-11T20:32:49.650Z,78.10
2024-01-11T20:35:18.019Z,78.30
2024-01-11T20:37:45.953Z,78.46
2024-01-11T20:40:13.925Z,78.60
2024-01-11T20:42:41.864Z,78.60
2024-01-11T20:45:10.570Z,78.66
2024-01-11T20:47:38.586Z,78.69
2024-01-11T20:50:07.538Z,78.62
2024-01-11T20:52:35.654Z,78.43
2024-01-11T20:55:05.315Z,78.23
2024-01-11T20:57:33.687Z,78.40
2024-01-11T21:00:02.728Z,78.24
2024-01-11T21:02:32.189Z,78.54
2024-01-11T21:05:01.448Z,78.87
2024-01-11T21:07:29.466Z,78.79
2024-01-11T21:09:57.519Z,78.72
2024-01-11T21:12:25.530Z,78.93
2024-01-11T21:14:53.559Z,78.79
2024-01-11T21:17:21.646Z,78.63
2024-01-11T21:19:50.333Z,79.05
2024-01-11T21:22:19.767Z,79.14
2024-01-11T21:24:48.708Z,79.03
2024-01-11T21:27:16.678Z,79.02
2024-01-11T21:29:44.668Z,78.89
2024-01-11T21:32:15.179Z,78.71
2024-01-11T21:34:43.247Z,78.48
2024-01-11T21:37:11.175Z,78.48
2024-01-11T21:39:39.342Z,78.61
2024-01-11T21:42:07.401Z,78.85
2024-01-11T21:44:35.450Z,78.74
2024-01-11T21:47:03.529Z,78.87
2024-01-11T21:49:31.518Z,78.88
2024-01-11T21:51:59.570Z,78.80
2024-01-11T21:54:27.746Z,78.60
2024-01-11T21:56:58.341Z,78.55
2024-01-11T21:59:26.407Z,78.50
2024-01-11T22:01:55.850Z,78.50
2024-01-11T22:04:23.924Z,79.01
2024-01-11T22:06:52.245Z,78.92
2024-01-11T22:09:21.009Z,79.04
2024-01-11T22:11:48.878Z,79.12
2024-01-11T22:14:17.462Z,78.91
2024-01-11T22:16:47.988Z,78.79
2024-01-11T22:19:16.077Z,78.82
2024-01-11T22:21:44.568Z,78.75
2024-01-11T22:24:12.902Z,78.77
2024-01-11T22:26:41.738Z,79.11
2024-01-11T22:29:10.018Z,79.07
2024-01-11T22:31:38.106Z,79.20
2024-01-11T22:34:06.296Z,79.07
2024-01-11T22:36:34.614Z,78.90
2024-01-11T22:39:02.593Z,79.06
2024-01-11T22:41:31.175Z,78.96
2024-01-11T22:44:00.839Z,78.69
2024-01-11T22:46:28.809Z,79.06
2024-01-11T22:48:56.889Z,79.14
2024-01-11T22:51:25.002Z,79.00
2024-01-11T22:53:53.150Z,78.84
2024-01-11T22:56:21.133Z,78.86
2024-01-11T22:58:49.181Z,78.77
2024-01-11T23:01:17.180Z,78.63
2024-01-11T23:03:45.200Z,78.53
2024-01-11T23:06:13.472Z,78.83
2024-01-11T23:08:41.446Z,79.40
2024-01-11T23:11:09.690Z,79.38
2024-01-11T23:13:38.924Z,79.45
2024-01-11T23:16:06.884Z,79.52
2024-01-11T23:18:36.699Z,79.17
2024-01-11T23:21:05.032Z,79.00
2024-01-11T23:23:33.032Z,78.87
2024-01-11T23:26:01.025Z,78.67
2024-01-11T23:28:28.951Z,79.19
2024-01-11T23:30:56.997Z,79.30
2024-01-11T23:33:25.093Z,79.46
2024-01-11T23:35:53.236Z,79.59
2024-01-11T23:38:21.157Z,79.57
2024-01-11T23:40:49.117Z,79.52
2024-01-11T23:43:18.048Z,79.39
2024-01-11T23:45:46.966Z,79.07
2024-01-11T23:48:15.025Z,78.93
2024-01-11T23:50:43.398Z,78.79
2024-01-11T23:53:11.411Z,78.58
2024-01-11T23:55:39.802Z,78.79
2024-01-11T23:58:07.813Z,79.02
